sensor_id;sensor_type;location;lat;lon;timestamp;pressure;altitude;pressure_sealevel;temperature;humidity
72055;BME280;59936;51.490;5.436;2023-05-20T00:04:43;102242.00;;;12.51;56.34
72055;BME280;59936;51.490;5.436;2023-05-20T00:07:12;102234.81;;;12.42;54.30
72055;BME280;59936;51.490;5.436;2023-05-20T00:09:41;102238.50;;;12.41;54.41
72055;BME280;59936;51.490;5.436;2023-05-20T00:12:09;102230.00;;;12.36;54.75
72055;BME280;59936;51.490;5.436;2023-05-20T00:14:38;102235.41;;;12.36;54.69
72055;BME280;59936;51.490;5.436;2023-05-20T00:17:07;102228.47;;;12.33;54.63
72055;BME280;59936;51.490;5.436;2023-05-20T00:19:35;102237.38;;;12.34;54.45
72055;BME280;59936;51.490;5.436;2023-05-20T00:22:04;102231.56;;;12.28;55.43
72055;BME280;59936;51.490;5.436;2023-05-20T00:24:32;102236.53;;;12.23;55.77
72055;BME280;59936;51.490;5.436;2023-05-20T00:27:01;102232.59;;;12.18;55.86
72055;BME280;59936;51.490;5.436;2023-05-20T00:29:29;102232.16;;;12.13;55.76
72055;BME280;59936;51.490;5.436;2023-05-20T00:31:58;102234.16;;;12.11;55.66
72055;BME280;59936;51.490;5.436;2023-05-20T00:34:27;102234.44;;;12.08;56.72
72055;BME280;59936;51.490;5.436;2023-05-20T00:36:55;102222.84;;;12.07;56.04
72055;BME280;59936;51.490;5.436;2023-05-20T00:39:24;102227.22;;;12.08;56.58
72055;BME280;59936;51.490;5.436;2023-05-20T00:41:52;102230.16;;;12.05;56.65
72055;BME280;59936;51.490;5.436;2023-05-20T00:44:21;102230.16;;;12.05;56.65
72055;BME280;59936;51.490;5.436;2023-05-20T00:46:49;102235.25;;;11.98;57.29
72055;BME280;59936;51.490;5.436;2023-05-20T00:49:18;102225.06;;;12.02;57.28
72055;BME280;59936;51.490;5.436;2023-05-20T00:51:47;102232.13;;;12.03;57.12
72055;BME280;59936;51.490;5.436;2023-05-20T00:54:15;102228.06;;;11.99;56.68
72055;BME280;59936;51.490;5.436;2023-05-20T00:56:44;102230.88;;;11.97;55.97
72055;BME280;59936;51.490;5.436;2023-05-20T00:59:12;102220.84;;;11.90;56.79
72055;BME280;59936;51.490;5.436;2023-05-20T01:01:41;102231.44;;;11.82;57.65
72055;BME280;59936;51.490;5.436;2023-05-20T01:04:10;102228.88;;;11.80;57.49
72055;BME280;59936;51.490;5.436;2023-05-20T01:06:38;102224.50;;;11.79;57.08
72055;BME280;59936;51.490;5.436;2023-05-20T01:09:07;102223.66;;;11.79;57.68
72055;BME280;59936;51.490;5.436;2023-05-20T01:11:47;102223.09;;;11.75;57.75
72055;BME280;59936;51.490;5.436;2023-05-20T01:14:22;102222.41;;;11.73;57.56
72055;BME280;59936;51.490;5.436;2023-05-20T01:17:00;102220.00;;;11.70;57.32
72055;BME280;59936;51.490;5.436;2023-05-20T01:19:41;102224.06;;;11.64;57.57
72055;BME280;59936;51.490;5.436;2023-05-20T01:22:11;102218.84;;;11.53;58.88
72055;BME280;59936;51.490;5.436;2023-05-20T01:24:43;102220.53;;;11.54;58.30
72055;BME280;59936;51.490;5.436;2023-05-20T01:27:13;102219.69;;;11.54;58.25
72055;BME280;59936;51.490;5.436;2023-05-20T01:29:42;102214.59;;;11.51;58.23
72055;BME280;59936;51.490;5.436;2023-05-20T01:34:54;102210.63;;;11.45;58.02
72055;BME280;59936;51.490;5.436;2023-05-20T01:37:24;102220.78;;;11.42;58.39
72055;BME280;59936;51.490;5.436;2023-05-20T01:39:55;102215.69;;;11.39;58.40
72055;BME280;59936;51.490;5.436;2023-05-20T01:42:26;102208.91;;;11.35;58.56
72055;BME280;59936;51.490;5.436;2023-05-20T01:44:57;102203.53;;;11.35;58.10
72055;BME280;59936;51.490;5.436;2023-05-20T01:47:26;102201.69;;;11.35;58.04
72055;BME280;59936;51.490;5.436;2023-05-20T01:49:55;102204.69;;;11.32;58.42
72055;BME280;59936;51.490;5.436;2023-05-20T01:52:24;102205.09;;;11.27;58.99
72055;BME280;59936;51.490;5.436;2023-05-20T01:54:52;102199.88;;;11.26;58.37
72055;BME280;59936;51.490;5.436;2023-05-20T01:57:22;102200.97;;;11.23;58.28
72055;BME280;59936;51.490;5.436;2023-05-20T01:59:51;102204.47;;;11.14;59.70
72055;BME280;59936;51.490;5.436;2023-05-20T02:02:19;102204.47;;;11.14;59.70
72055;BME280;59936;51.490;5.436;2023-05-20T02:04:49;102189.94;;;11.07;59.85
72055;BME280;59936;51.490;5.436;2023-05-20T02:07:18;102196.41;;;11.05;59.47
72055;BME280;59936;51.490;5.436;2023-05-20T02:09:47;102198.53;;;11.01;59.77
72055;BME280;59936;51.490;5.436;2023-05-20T02:12:16;102196.38;;;10.95;59.06
72055;BME280;59936;51.490;5.436;2023-05-20T02:14:45;102196.38;;;10.95;59.06
72055;BME280;59936;51.490;5.436;2023-05-20T02:17:16;102200.59;;;10.88;59.58
72055;BME280;59936;51.490;5.436;2023-05-20T02:19:44;102200.59;;;10.88;59.58
72055;BME280;59936;51.490;5.436;2023-05-20T02:22:13;102187.84;;;10.80;59.51
72055;BME280;59936;51.490;5.436;2023-05-20T02:24:42;102191.66;;;10.78;59.89
72055;BME280;59936;51.490;5.436;2023-05-20T02:27:10;102193.75;;;10.74;60.17
72055;BME280;59936;51.490;5.436;2023-05-20T02:29:39;102193.03;;;10.72;60.61
72055;BME280;59936;51.490;5.436;2023-05-20T02:32:07;102188.66;;;10.71;60.59
72055;BME280;59936;51.490;5.436;2023-05-20T02:34:36;102193.03;;;10.72;59.96
72055;BME280;59936;51.490;5.436;2023-05-20T02:37:05;102186.09;;;10.70;60.49
72055;BME280;59936;51.490;5.436;2023-05-20T02:39:33;102184.44;;;10.69;60.61
72055;BME280;59936;51.490;5.436;2023-05-20T02:42:02;102191.75;;;10.67;60.09
72055;BME280;59936;51.490;5.436;2023-05-20T02:44:30;102182.16;;;10.64;60.02
72055;BME280;59936;51.490;5.436;2023-05-20T02:46:59;102183.41;;;10.60;60.38
72055;BME280;59936;51.490;5.436;2023-05-20T02:49:33;102185.38;;;10.58;60.27
72055;BME280;59936;51.490;5.436;2023-05-20T02:52:06;102185.50;;;10.56;60.62
72055;BME280;59936;51.490;5.436;2023-05-20T02:54:35;102186.59;;;10.54;60.25
72055;BME280;59936;51.490;5.436;2023-05-20T02:57:07;102183.47;;;10.49;61.25
72055;BME280;59936;51.490;5.436;2023-05-20T02:59:35;102178.63;;;10.43;61.22
72055;BME280;59936;51.490;5.436;2023-05-20T03:02:04;102180.84;;;10.38;61.34
72055;BME280;59936;51.490;5.436;2023-05-20T03:04:33;102174.78;;;10.36;60.94
72055;BME280;59936;51.490;5.436;2023-05-20T03:07:01;102179.41;;;10.34;61.29
72055;BME280;59936;51.490;5.436;2023-05-20T03:09:33;102179.69;;;10.31;62.23
72055;BME280;59936;51.490;5.436;2023-05-20T03:12:07;102180.28;;;10.34;60.96
72055;BME280;59936;51.490;5.436;2023-05-20T03:14:40;102180.28;;;10.34;60.96
72055;BME280;59936;51.490;5.436;2023-05-20T03:17:14;102177.25;;;10.27;61.34
72055;BME280;59936;51.490;5.436;2023-05-20T03:19:42;102182.06;;;10.24;62.63
72055;BME280;59936;51.490;5.436;2023-05-20T03:22:11;102182.06;;;10.24;62.63
72055;BME280;59936;51.490;5.436;2023-05-20T03:24:39;102171.72;;;10.19;62.49
72055;BME280;59936;51.490;5.436;2023-05-20T03:27:08;102175.38;;;10.18;61.78
72055;BME280;59936;51.490;5.436;2023-05-20T03:29:37;102169.44;;;10.15;62.18
72055;BME280;59936;51.490;5.436;2023-05-20T03:32:06;102171.66;;;10.10;62.95
72055;BME280;59936;51.490;5.436;2023-05-20T03:34:34;102173.63;;;10.08;62.55
72055;BME280;59936;51.490;5.436;2023-05-20T03:37:03;102178.25;;;10.06;63.20
72055;BME280;59936;51.490;5.436;2023-05-20T03:39:32;102175.72;;;10.04;62.80
72055;BME280;59936;51.490;5.436;2023-05-20T03:42:00;102181.22;;;10.03;62.74
72055;BME280;59936;51.490;5.436;2023-05-20T03:44:29;102171.59;;;10.00;62.65
72055;BME280;59936;51.490;5.436;2023-05-20T03:46:57;102176.00;;;10.01;62.21
72055;BME280;59936;51.490;5.436;2023-05-20T03:49:26;102176.00;;;10.01;61.96
72055;BME280;59936;51.490;5.436;2023-05-20T03:51:54;102174.28;;;10.00;62.16
72055;BME280;59936;51.490;5.436;2023-05-20T03:54:23;102175.88;;;10.03;62.08
72055;BME280;59936;51.490;5.436;2023-05-20T03:56:52;102182.06;;;10.03;63.18
72055;BME280;59936;51.490;5.436;2023-05-20T03:59:20;102175.72;;;10.04;63.50
72055;BME280;59936;51.490;5.436;2023-05-20T04:01:49;102175.56;;;10.06;62.95
72055;BME280;59936;51.490;5.436;2023-05-20T04:04:17;102175.56;;;10.06;63.17
72055;BME280;59936;51.490;5.436;2023-05-20T04:06:46;102164.84;;;10.06;63.26
72055;BME280;59936;51.490;5.436;2023-05-20T04:09:14;102179.56;;;10.11;63.11
72055;BME280;59936;51.490;5.436;2023-05-20T04:11:43;102179.56;;;10.11;63.11
72055;BME280;59936;51.490;5.436;2023-05-20T04:14:12;102172.50;;;10.10;62.87
72055;BME280;59936;51.490;5.436;2023-05-20T04:16:40;102173.09;;;10.14;62.67
72055;BME280;59936;51.490;5.436;2023-05-20T04:19:09;102179.31;;;10.14;62.74
72055;BME280;59936;51.490;5.436;2023-05-20T04:21:37;102180.16;;;10.15;64.36
72055;BME280;59936;51.490;5.436;2023-05-20T04:24:06;102176.25;;;10.19;63.28
72055;BME280;59936;51.490;5.436;2023-05-20T04:26:35;102179.38;;;10.24;62.88
72055;BME280;59936;51.490;5.436;2023-05-20T04:29:03;102184.59;;;10.25;62.88
72055;BME280;59936;51.490;5.436;2023-05-20T04:31:32;102178.97;;;10.28;62.79
72055;BME280;59936;51.490;5.436;2023-05-20T04:34:00;102189.63;;;10.40;63.07
72055;BME280;59936;51.490;5.436;2023-05-20T04:36:29;102185.69;;;10.44;62.88
72055;BME280;59936;51.490;5.436;2023-05-20T04:39:01;102185.69;;;10.44;62.88
72055;BME280;59936;51.490;5.436;2023-05-20T04:41:30;102179.50;;;10.43;63.53
72055;BME280;59936;51.490;5.436;2023-05-20T04:43:58;102183.59;;;10.47;63.10
72055;BME280;59936;51.490;5.436;2023-05-20T04:46:27;102177.00;;;10.51;63.50
72055;BME280;59936;51.490;5.436;2023-05-20T04:48:55;102177.91;;;10.62;63.23
72055;BME280;59936;51.490;5.436;2023-05-20T04:51:24;102177.91;;;10.62;63.23
72055;BME280;59936;51.490;5.436;2023-05-20T04:53:53;102181.75;;;10.69;64.19
72055;BME280;59936;51.490;5.436;2023-05-20T04:56:21;102190.94;;;10.76;63.95
72055;BME280;59936;51.490;5.436;2023-05-20T04:58:50;102190.94;;;10.76;63.95
72055;BME280;59936;51.490;5.436;2023-05-20T05:01:18;102181.91;;;10.77;64.62
72055;BME280;59936;51.490;5.436;2023-05-20T05:03:47;102182.50;;;10.80;64.65
72055;BME280;59936;51.490;5.436;2023-05-20T05:06:21;102178.56;;;10.84;64.39
72055;BME280;59936;51.490;5.436;2023-05-20T05:08:55;102169.00;;;11.01;64.01
72055;BME280;59936;51.490;5.436;2023-05-20T05:11:24;102169.94;;;11.31;63.84
72055;BME280;59936;51.490;5.436;2023-05-20T05:13:53;102164.00;;;11.46;64.35
72055;BME280;59936;51.490;5.436;2023-05-20T05:16:22;102156.50;;;11.79;62.85
72055;BME280;59936;51.490;5.436;2023-05-20T05:18:51;102155.25;;;11.73;63.65
72055;BME280;59936;51.490;5.436;2023-05-20T05:21:19;102163.28;;;11.83;63.10
72055;BME280;59936;51.490;5.436;2023-05-20T05:23:48;102156.06;;;11.83;63.63
72055;BME280;59936;51.490;5.436;2023-05-20T05:26:16;102168.66;;;11.83;63.21
72055;BME280;59936;51.490;5.436;2023-05-20T05:28:53;102168.66;;;11.83;63.21
72055;BME280;59936;51.490;5.436;2023-05-20T05:31:21;102160.75;;;11.81;63.44
72055;BME280;59936;51.490;5.436;2023-05-20T05:33:50;102162.88;;;11.87;64.01
72055;BME280;59936;51.490;5.436;2023-05-20T05:36:19;102162.31;;;11.93;63.32
72055;BME280;59936;51.490;5.436;2023-05-20T05:38:50;102159.19;;;11.98;63.47
72055;BME280;59936;51.490;5.436;2023-05-20T05:41:19;102152.38;;;12.04;63.35
72055;BME280;59936;51.490;5.436;2023-05-20T05:43:47;102158.06;;;12.10;63.63
72055;BME280;59936;51.490;5.436;2023-05-20T05:46:16;102157.22;;;12.19;63.67
72055;BME280;59936;51.490;5.436;2023-05-20T05:48:48;102156.47;;;12.27;63.44
72055;BME280;59936;51.490;5.436;2023-05-20T05:51:16;102143.44;;;12.32;63.87
72055;BME280;59936;51.490;5.436;2023-05-20T05:53:45;102148.09;;;12.40;63.45
72055;BME280;59936;51.490;5.436;2023-05-20T05:56:13;102150.03;;;12.47;63.65
72055;BME280;59936;51.490;5.436;2023-05-20T05:58:42;102152.84;;;12.55;63.37
72055;BME280;59936;51.490;5.436;2023-05-20T06:01:10;102166.19;;;12.75;62.79
72055;BME280;59936;51.490;5.436;2023-05-20T06:03:39;102160.78;;;12.84;63.58
72055;BME280;59936;51.490;5.436;2023-05-20T06:06:08;102160.78;;;12.84;63.58
72055;BME280;59936;51.490;5.436;2023-05-20T06:08:36;102156.75;;;12.98;62.71
72055;BME280;59936;51.490;5.436;2023-05-20T06:11:05;102161.00;;;13.18;62.33
72055;BME280;59936;51.490;5.436;2023-05-20T06:13:34;102161.00;;;13.18;62.33
72055;BME280;59936;51.490;5.436;2023-05-20T06:16:03;102152.19;;;13.26;62.41
72055;BME280;59936;51.490;5.436;2023-05-20T06:18:32;102157.63;;;13.34;62.34
72055;BME280;59936;51.490;5.436;2023-05-20T06:21:01;102154.03;;;13.43;62.29
72055;BME280;59936;51.490;5.436;2023-05-20T06:23:30;102150.91;;;13.65;62.08
72055;BME280;59936;51.490;5.436;2023-05-20T06:25:59;102150.91;;;13.65;62.08
72055;BME280;59936;51.490;5.436;2023-05-20T06:28:28;102137.88;;;13.79;61.50
72055;BME280;59936;51.490;5.436;2023-05-20T06:30:57;102125.72;;;13.92;61.84
72055;BME280;59936;51.490;5.436;2023-05-20T06:33:26;102126.28;;;14.04;61.59
72055;BME280;59936;51.490;5.436;2023-05-20T06:35:55;102129.22;;;14.19;61.38
72055;BME280;59936;51.490;5.436;2023-05-20T06:38:24;102125.84;;;14.43;60.82
72055;BME280;59936;51.490;5.436;2023-05-20T06:40:53;102130.50;;;14.66;60.82
72055;BME280;59936;51.490;5.436;2023-05-20T06:43:21;102134.19;;;14.91;60.66
72055;BME280;59936;51.490;5.436;2023-05-20T06:45:53;102117.03;;;15.25;61.22
72055;BME280;59936;51.490;5.436;2023-05-20T06:48:22;102118.25;;;15.71;60.97
72055;BME280;59936;51.490;5.436;2023-05-20T06:50:55;102107.31;;;16.05;60.70
72055;BME280;59936;51.490;5.436;2023-05-20T06:53:30;102120.38;;;16.49;61.14
72055;BME280;59936;51.490;5.436;2023-05-20T06:55:58;102105.31;;;16.93;61.01
72055;BME280;59936;51.490;5.436;2023-05-20T06:58:31;102113.91;;;17.28;60.73
72055;BME280;59936;51.490;5.436;2023-05-20T07:01:00;102106.97;;;17.86;60.57
72055;BME280;59936;51.490;5.436;2023-05-20T07:03:33;102106.97;;;17.86;60.57
72055;BME280;59936;51.490;5.436;2023-05-20T07:06:02;102097.91;;;18.01;59.49
72055;BME280;59936;51.490;5.436;2023-05-20T07:08:30;102097.44;;;18.27;59.52
72055;BME280;59936;51.490;5.436;2023-05-20T07:10:59;102097.53;;;18.63;59.84
72055;BME280;59936;51.490;5.436;2023-05-20T07:13:29;102095.63;;;18.93;58.59
72055;BME280;59936;51.490;5.436;2023-05-20T07:15:58;102103.81;;;19.14;58.62
72055;BME280;59936;51.490;5.436;2023-05-20T07:18:26;102098.25;;;19.23;56.58
72055;BME280;59936;51.490;5.436;2023-05-20T07:20:55;102110.81;;;19.24;57.32
72055;BME280;59936;51.490;5.436;2023-05-20T07:23:24;102110.81;;;19.24;57.32
72055;BME280;59936;51.490;5.436;2023-05-20T07:25:52;102096.06;;;19.54;57.51
72055;BME280;59936;51.490;5.436;2023-05-20T07:28:21;102097.41;;;19.86;57.25
72055;BME280;59936;51.490;5.436;2023-05-20T07:30:49;102097.16;;;20.09;56.10
72055;BME280;59936;51.490;5.436;2023-05-20T07:33:18;102084.25;;;20.24;56.34
72055;BME280;59936;51.490;5.436;2023-05-20T07:35:46;102083.91;;;20.34;55.39
72055;BME280;59936;51.490;5.436;2023-05-20T07:38:15;102083.28;;;20.73;55.46
72055;BME280;59936;51.490;5.436;2023-05-20T07:40:43;102077.06;;;20.86;54.36
72055;BME280;59936;51.490;5.436;2023-05-20T07:43:12;102079.22;;;21.16;53.80
72055;BME280;59936;51.490;5.436;2023-05-20T07:45:41;102072.97;;;21.36;53.18
72055;BME280;59936;51.490;5.436;2023-05-20T07:48:10;102076.16;;;21.52;52.34
72055;BME280;59936;51.490;5.436;2023-05-20T07:50:38;102064.63;;;21.77;51.69
72055;BME280;59936;51.490;5.436;2023-05-20T07:53:11;102059.56;;;22.00;50.35
72055;BME280;59936;51.490;5.436;2023-05-20T07:55:45;102070.19;;;22.41;49.23
72055;BME280;59936;51.490;5.436;2023-05-20T07:58:18;102074.91;;;22.79;48.08
72055;BME280;59936;51.490;5.436;2023-05-20T08:00:47;102064.41;;;22.76;47.69
72055;BME280;59936;51.490;5.436;2023-05-20T08:03:15;102064.09;;;22.46;46.80
72055;BME280;59936;51.490;5.436;2023-05-20T08:05:44;102065.44;;;22.75;47.04
72055;BME280;59936;51.490;5.436;2023-05-20T08:08:13;102060.53;;;23.28;45.52
72055;BME280;59936;51.490;5.436;2023-05-20T08:10:41;102061.91;;;23.44;43.76
72055;BME280;59936;51.490;5.436;2023-05-20T08:13:11;102062.13;;;23.67;43.52
72055;BME280;59936;51.490;5.436;2023-05-20T08:15:40;102062.13;;;23.67;43.52
72055;BME280;59936;51.490;5.436;2023-05-20T08:18:12;102042.91;;;23.74;43.45
72055;BME280;59936;51.490;5.436;2023-05-20T08:20:41;102046.66;;;24.04;42.74
72055;BME280;59936;51.490;5.436;2023-05-20T08:23:09;102050.06;;;24.36;42.94
72055;BME280;59936;51.490;5.436;2023-05-20T08:25:38;102052.22;;;24.71;42.63
72055;BME280;59936;51.490;5.436;2023-05-20T08:28:10;102045.47;;;24.85;41.28
72055;BME280;59936;51.490;5.436;2023-05-20T08:30:39;102033.09;;;24.46;41.90
72055;BME280;59936;51.490;5.436;2023-05-20T08:33:08;102041.81;;;24.91;41.79
72055;BME280;59936;51.490;5.436;2023-05-20T08:35:36;102035.16;;;25.29;41.17
72055;BME280;59936;51.490;5.436;2023-05-20T08:38:05;102030.25;;;25.42;40.79
72055;BME280;59936;51.490;5.436;2023-05-20T08:40:34;102027.06;;;25.45;40.50
72055;BME280;59936;51.490;5.436;2023-05-20T08:43:03;102025.13;;;25.46;41.18
72055;BME280;59936;51.490;5.436;2023-05-20T08:45:33;102024.56;;;25.90;40.52
72055;BME280;59936;51.490;5.436;2023-05-20T08:48:04;102025.75;;;25.36;40.99
72055;BME280;59936;51.490;5.436;2023-05-20T08:50:39;102018.13;;;24.78;40.21
72055;BME280;59936;51.490;5.436;2023-05-20T08:53:07;102027.81;;;25.22;40.22
72055;BME280;59936;51.490;5.436;2023-05-20T08:55:46;102027.81;;;25.22;40.22
72055;BME280;59936;51.490;5.436;2023-05-20T08:58:21;102010.81;;;25.44;40.31
72055;BME280;59936;51.490;5.436;2023-05-20T09:00:51;102021.09;;;25.72;40.03
72055;BME280;59936;51.490;5.436;2023-05-20T09:03:19;102004.16;;;25.40;40.75
72055;BME280;59936;51.490;5.436;2023-05-20T09:05:49;102022.97;;;25.24;40.00
72055;BME280;59936;51.490;5.436;2023-05-20T09:08:22;102021.16;;;25.18;40.22
72055;BME280;59936;51.490;5.436;2023-05-20T09:10:52;102013.22;;;25.64;39.59
72055;BME280;59936;51.490;5.436;2023-05-20T09:13:22;101998.13;;;25.19;39.52
72055;BME280;59936;51.490;5.436;2023-05-20T09:15:51;102010.56;;;24.92;39.88
72055;BME280;59936;51.490;5.436;2023-05-20T09:18:20;102010.59;;;25.04;39.75
72055;BME280;59936;51.490;5.436;2023-05-20T09:20:49;102003.03;;;24.57;39.97
72055;BME280;59936;51.490;5.436;2023-05-20T09:23:18;102002.94;;;24.64;40.66
72055;BME280;59936;51.490;5.436;2023-05-20T09:25:51;102011.69;;;25.56;38.82
72055;BME280;59936;51.490;5.436;2023-05-20T09:28:23;102011.69;;;25.56;38.82
72055;BME280;59936;51.490;5.436;2023-05-20T09:30:59;102000.78;;;25.26;39.64
72055;BME280;59936;51.490;5.436;2023-05-20T09:33:29;101999.06;;;25.13;38.29
72055;BME280;59936;51.490;5.436;2023-05-20T09:36:07;101993.53;;;25.32;39.45
72055;BME280;59936;51.490;5.436;2023-05-20T09:38:38;101995.56;;;25.36;37.93
72055;BME280;59936;51.490;5.436;2023-05-20T09:41:10;102002.50;;;25.39;38.85
72055;BME280;59936;51.490;5.436;2023-05-20T09:43:46;102006.88;;;25.28;38.78
72055;BME280;59936;51.490;5.436;2023-05-20T09:46:15;101997.09;;;25.32;39.34
72055;BME280;59936;51.490;5.436;2023-05-20T09:48:49;101994.50;;;25.72;39.29
72055;BME280;59936;51.490;5.436;2023-05-20T09:51:18;101998.94;;;25.97;38.71
72055;BME280;59936;51.490;5.436;2023-05-20T09:53:52;102003.34;;;25.98;38.76
72055;BME280;59936;51.490;5.436;2023-05-20T09:56:28;102007.38;;;25.07;38.13
72055;BME280;59936;51.490;5.436;2023-05-20T09:59:04;102001.13;;;24.88;39.31
72055;BME280;59936;51.490;5.436;2023-05-20T10:01:32;101991.31;;;24.14;38.77
72055;BME280;59936;51.490;5.436;2023-05-20T10:04:03;102000.00;;;24.29;40.17
72055;BME280;59936;51.490;5.436;2023-05-20T10:09:56;101994.06;;;22.96;41.08
72055;BME280;59936;51.490;5.436;2023-05-20T10:12:40;101988.16;;;22.16;42.28
72055;BME280;59936;51.490;5.436;2023-05-20T10:15:20;101988.16;;;22.16;42.28
72055;BME280;59936;51.490;5.436;2023-05-20T10:20:47;101978.84;;;22.75;41.70
72055;BME280;59936;51.490;5.436;2023-05-20T10:25:50;101965.22;;;23.75;41.28
72055;BME280;59936;51.490;5.436;2023-05-20T10:28:35;101959.06;;;24.16;39.93
72055;BME280;59936;51.490;5.436;2023-05-20T10:31:21;101974.84;;;25.10;37.04
72055;BME280;59936;51.490;5.436;2023-05-20T10:33:51;101955.78;;;25.15;37.30
72055;BME280;59936;51.490;5.436;2023-05-20T10:36:26;101952.34;;;24.48;37.75
72055;BME280;59936;51.490;5.436;2023-05-20T10:39:00;101954.94;;;24.43;40.42
72055;BME280;59936;51.490;5.436;2023-05-20T10:41:31;101949.75;;;24.53;39.47
72055;BME280;59936;51.490;5.436;2023-05-20T10:44:00;101945.41;;;24.64;40.39
72055;BME280;59936;51.490;5.436;2023-05-20T10:46:31;101941.25;;;25.27;39.82
72055;BME280;59936;51.490;5.436;2023-05-20T10:49:02;101934.72;;;25.51;39.21
72055;BME280;59936;51.490;5.436;2023-05-20T10:51:36;101937.69;;;25.73;39.48
72055;BME280;59936;51.490;5.436;2023-05-20T10:54:08;101937.38;;;26.21;38.64
72055;BME280;59936;51.490;5.436;2023-05-20T10:56:39;101937.22;;;26.28;38.49
72055;BME280;59936;51.490;5.436;2023-05-20T10:59:08;101924.50;;;26.10;38.83
72055;BME280;59936;51.490;5.436;2023-05-20T11:01:37;101930.94;;;25.92;38.89
72055;BME280;59936;51.490;5.436;2023-05-20T11:04:06;101937.13;;;26.11;38.79
72055;BME280;59936;51.490;5.436;2023-05-20T11:06:35;101920.78;;;26.16;38.86
72055;BME280;59936;51.490;5.436;2023-05-20T11:09:04;101918.59;;;25.66;38.54
72055;BME280;59936;51.490;5.436;2023-05-20T11:11:33;101925.84;;;24.61;39.55
72055;BME280;59936;51.490;5.436;2023-05-20T11:14:02;101920.38;;;23.94;40.30
72055;BME280;59936;51.490;5.436;2023-05-20T11:16:31;101915.00;;;23.87;40.02
72055;BME280;59936;51.490;5.436;2023-05-20T11:18:59;101922.13;;;24.07;40.31
72055;BME280;59936;51.490;5.436;2023-05-20T11:21:28;101924.19;;;24.41;39.64
72055;BME280;59936;51.490;5.436;2023-05-20T11:23:56;101924.81;;;24.43;39.48
72055;BME280;59936;51.490;5.436;2023-05-20T11:26:25;101914.75;;;24.07;39.51
72055;BME280;59936;51.490;5.436;2023-05-20T11:28:56;101917.28;;;23.47;40.40
72055;BME280;59936;51.490;5.436;2023-05-20T11:31:24;101917.28;;;23.47;40.40
72055;BME280;59936;51.490;5.436;2023-05-20T11:33:53;101912.91;;;23.46;40.35
72055;BME280;59936;51.490;5.436;2023-05-20T11:36:21;101913.13;;;23.63;39.93
72055;BME280;59936;51.490;5.436;2023-05-20T11:38:50;101899.63;;;23.68;39.61
72055;BME280;59936;51.490;5.436;2023-05-20T11:41:25;101909.63;;;23.74;39.61
72055;BME280;59936;51.490;5.436;2023-05-20T11:43:55;101917.78;;;23.99;39.43
72055;BME280;59936;51.490;5.436;2023-05-20T11:46:28;101906.28;;;23.72;39.04
72055;BME280;59936;51.490;5.436;2023-05-20T11:48:56;101907.44;;;23.46;39.56
72055;BME280;59936;51.490;5.436;2023-05-20T11:51:28;101898.91;;;23.36;39.98
72055;BME280;59936;51.490;5.436;2023-05-20T11:54:01;101897.19;;;23.60;40.21
72055;BME280;59936;51.490;5.436;2023-05-20T11:56:36;101895.81;;;24.06;39.32
72055;BME280;59936;51.490;5.436;2023-05-20T11:59:07;101889.69;;;24.22;39.53
72055;BME280;59936;51.490;5.436;2023-05-20T12:01:38;101889.69;;;24.22;39.53
72055;BME280;59936;51.490;5.436;2023-05-20T12:04:11;101892.75;;;24.14;39.85
72055;BME280;59936;51.490;5.436;2023-05-20T12:06:39;101882.28;;;24.11;39.71
72055;BME280;59936;51.490;5.436;2023-05-20T12:09:09;101870.22;;;24.30;39.90
72055;BME280;59936;51.490;5.436;2023-05-20T12:11:38;101878.94;;;24.09;39.69
72055;BME280;59936;51.490;5.436;2023-05-20T12:14:08;101885.44;;;24.26;39.78
72055;BME280;59936;51.490;5.436;2023-05-20T12:16:37;101871.44;;;24.76;39.18
72055;BME280;59936;51.490;5.436;2023-05-20T12:19:05;101870.66;;;24.57;39.36
72055;BME280;59936;51.490;5.436;2023-05-20T12:21:34;101870.66;;;24.57;39.36
72055;BME280;59936;51.490;5.436;2023-05-20T12:24:03;101858.88;;;24.27;39.62
72055;BME280;59936;51.490;5.436;2023-05-20T12:26:31;101862.84;;;24.31;39.76
72055;BME280;59936;51.490;5.436;2023-05-20T12:29:00;101851.97;;;24.24;39.17
72055;BME280;59936;51.490;5.436;2023-05-20T12:31:29;101865.03;;;24.10;39.49
72055;BME280;59936;51.490;5.436;2023-05-20T12:33:57;101862.13;;;24.05;39.68
72055;BME280;59936;51.490;5.436;2023-05-20T12:36:26;101867.03;;;24.15;40.02
72055;BME280;59936;51.490;5.436;2023-05-20T12:38:54;101871.88;;;24.31;39.61
72055;BME280;59936;51.490;5.436;2023-05-20T12:41:23;101856.63;;;24.35;39.99
72055;BME280;59936;51.490;5.436;2023-05-20T12:43:52;101872.19;;;24.23;40.03
72055;BME280;59936;51.490;5.436;2023-05-20T12:46:20;101859.75;;;24.39;40.26
72055;BME280;59936;51.490;5.436;2023-05-20T12:48:49;101854.13;;;24.34;39.67
72055;BME280;59936;51.490;5.436;2023-05-20T12:51:17;101863.53;;;24.26;39.89
72055;BME280;59936;51.490;5.436;2023-05-20T12:53:46;101861.44;;;23.92;40.37
72055;BME280;59936;51.490;5.436;2023-05-20T12:56:15;101857.75;;;23.68;40.78
72055;BME280;59936;51.490;5.436;2023-05-20T12:58:43;101863.50;;;23.41;40.37
72055;BME280;59936;51.490;5.436;2023-05-20T13:01:18;101849.44;;;23.56;40.96
72055;BME280;59936;51.490;5.436;2023-05-20T13:03:46;101847.03;;;23.84;40.23
72055;BME280;59936;51.490;5.436;2023-05-20T13:06:15;101856.38;;;24.25;40.19
72055;BME280;59936;51.490;5.436;2023-05-20T13:08:43;101847.41;;;24.48;39.77
72055;BME280;59936;51.490;5.436;2023-05-20T13:11:15;101854.56;;;24.19;39.86
72055;BME280;59936;51.490;5.436;2023-05-20T13:13:48;101854.00;;;23.80;40.08
72055;BME280;59936;51.490;5.436;2023-05-20T13:16:17;101853.38;;;23.78;40.23
72055;BME280;59936;51.490;5.436;2023-05-20T13:18:45;101842.16;;;23.86;40.52